Okaya, Japan
Current Conditions -  °F | °C
As of 1:00 PM on Friday 19 Dec 2014 (Local Time) from RJNT Reporting Station
Scattered Clouds Scattered Clouds  
Wind Chill: 41°   Ceiling: Unl
Heat Index: 41°   Visibility: 6mi
Dew Point: 27°   Wind: 3mph
Humidity: 57%   Direction: 170°S
Pressure: 30.42"   Gusts: NA
Location:  36.06°N, 138.06°E
Report Text: RJNT 190400Z 17003KT 080V210 9999 FEW030 SCT/// 05/M03 Q1030
Loading
Personal Weather Stations






























Interactive Weather Map New forecast layout! Learn more

10-Day Weather Forecast

Advertisements
Track Severe Weather on mobile